Time;durP1;ratioP1;P1;durP2;ratioP2;P2;SDS_P1;SDS_P2;PMS_P1;PMS_P2;Temp;Humidity;BMP_temperature;BMP_pressure;BME280_temperature;BME280_humidity;BME280_pressure;Samples;Min_cycle;Max_cycle;Signal;HPM_P1;HPM_P2
2021/09/09 00:00:32;;;;;;;9.63;6.83;;;15.20;99.90;;;;;;4967890;28;20694;-89
2021/09/09 00:02:59;;;;;;;11.10;7.97;;;15.10;99.90;;;;;;4967703;28;20303;-88
2021/09/09 00:05:25;;;;;;;16.90;8.47;;;15.10;99.90;;;;;;4967014;28;20649;-87
2021/09/09 00:07:51;;;;;;;8.60;7.77;;;15.00;99.90;;;;;;4967692;28;20207;-90
2021/09/09 00:10:17;;;;;;;13.13;7.70;;;15.00;99.90;;;;;;4967228;28;20228;-88
2021/09/09 00:12:44;;;;;;;12.93;7.63;;;15.00;99.90;;;;;;4983512;28;20619;-88
2021/09/09 00:15:11;;;;;;;12.30;8.40;;;15.10;99.90;;;;;;4983510;28;20221;-88
2021/09/09 00:17:39;;;;;;;16.00;8.87;;;15.10;99.90;;;;;;4966525;28;20193;-88
2021/09/09 00:20:06;;;;;;;17.70;9.23;;;15.00;99.90;;;;;;4967800;28;20192;-90
2021/09/09 00:22:32;;;;;;;13.13;8.83;;;14.90;99.90;;;;;;4967941;28;20224;-89
2021/09/09 00:24:57;;;;;;;12.03;8.50;;;14.90;99.90;;;;;;4967561;28;20240;-90
2021/09/09 00:27:23;;;;;;;13.30;7.80;;;14.90;99.90;;;;;;4959805;28;20656;-88
2021/09/09 00:29:49;;;;;;;14.90;9.13;;;14.80;99.90;;;;;;4966960;28;20220;-89
2021/09/09 00:32:14;;;;;;;15.27;8.53;;;14.90;99.90;;;;;;4967527;28;20707;-88
2021/09/09 00:34:40;;;;;;;14.57;8.80;;;14.90;99.90;;;;;;4966646;28;20228;-88
2021/09/09 00:37:06;;;;;;;12.97;7.97;;;14.80;99.90;;;;;;4982064;28;20304;-88
2021/09/09 00:39:31;;;;;;;14.83;8.13;;;14.70;99.90;;;;;;4964010;28;20224;-88
2021/09/09 00:41:57;;;;;;;17.67;8.77;;;14.70;99.90;;;;;;4964308;28;20270;-89
2021/09/09 00:44:26;;;;;;;11.80;7.80;;;14.70;99.90;;;;;;4979728;28;20244;-86
2021/09/09 00:47:18;;;;;;;13.37;8.23;;;14.60;99.90;;;;;;4964910;28;20212;-87
2021/09/09 00:49:44;;;;;;;11.90;8.67;;;14.60;99.90;;;;;;4963127;28;20216;-87
2021/09/09 00:52:12;;;;;;;13.90;8.43;;;14.50;99.90;;;;;;4982840;28;20223;-88
2021/09/09 00:54:39;;;;;;;16.13;7.67;;;14.50;99.90;;;;;;4967231;28;20449;-87
2021/09/09 00:57:05;;;;;;;12.03;7.57;;;14.40;99.90;;;;;;4965333;28;20220;-86
2021/09/09 00:59:35;;;;;;;14.00;8.83;;;14.50;99.90;;;;;;4962678;28;20192;-88
2021/09/09 01:02:02;;;;;;;12.03;7.83;;;14.50;99.90;;;;;;4963577;28;20201;-87
2021/09/09 01:04:28;;;;;;;14.60;7.43;;;14.50;99.90;;;;;;4962706;28;20278;-88
2021/09/09 01:06:55;;;;;;;11.57;7.30;;;14.50;99.90;;;;;;4981218;28;20229;-88
2021/09/09 01:09:21;;;;;;;8.80;7.20;;;14.60;99.90;;;;;;4981546;28;20236;-87
2021/09/09 01:11:47;;;;;;;16.40;7.70;;;14.50;99.90;;;;;;4982600;28;20258;-86
2021/09/09 01:14:15;;;;;;;14.63;8.80;;;14.50;99.90;;;;;;4966562;28;20224;-88
2021/09/09 01:16:42;;;;;;;12.97;7.57;;;14.50;99.90;;;;;;4965905;28;20251;-89
2021/09/09 01:19:09;;;;;;;10.63;7.00;;;14.50;99.90;;;;;;4982093;28;20307;-89
2021/09/09 01:21:35;;;;;;;10.50;7.10;;;14.50;99.90;;;;;;4965790;28;20228;-89
2021/09/09 01:24:02;;;;;;;12.17;8.07;;;14.50;99.90;;;;;;4982344;28;20233;-87
2021/09/09 01:26:30;;;;;;;17.77;6.93;;;14.50;99.90;;;;;;4966546;28;20193;-89
2021/09/09 01:28:58;;;;;;;13.70;8.17;;;14.50;99.90;;;;;;4966635;28;21026;-90
2021/09/09 01:31:24;;;;;;;12.37;7.83;;;14.50;99.90;;;;;;4965707;28;20217;-88
2021/09/09 01:33:56;;;;;;;7.60;6.90;;;14.50;99.90;;;;;;4966914;28;20231;-87
2021/09/09 01:36:23;;;;;;;11.13;8.03;;;14.50;99.90;;;;;;4966062;28;20223;-87
2021/09/09 01:38:49;;;;;;;13.33;7.10;;;14.50;99.90;;;;;;4965797;28;20228;-89
2021/09/09 01:41:16;;;;;;;13.53;7.17;;;14.40;99.90;;;;;;4982048;28;20188;-88
2021/09/09 01:43:41;;;;;;;12.80;7.23;;;14.40;99.90;;;;;;4965219;28;20236;-90
2021/09/09 01:46:07;;;;;;;9.03;6.97;;;14.50;99.90;;;;;;4965935;28;21261;-90
2021/09/09 01:48:33;;;;;;;13.20;7.73;;;14.50;99.90;;;;;;4982355;28;20272;-89
2021/09/09 01:50:59;;;;;;;11.77;7.90;;;14.50;99.90;;;;;;4966205;28;20843;-88
2021/09/09 01:53:24;;;;;;;20.73;8.37;;;14.60;99.90;;;;;;4965818;28;20204;-89
2021/09/09 01:55:50;;;;;;;9.20;7.27;;;14.60;99.90;;;;;;4966073;28;20726;-88
2021/09/09 01:58:16;;;;;;;11.53;6.70;;;14.70;99.90;;;;;;4965597;28;20225;-89
2021/09/09 02:00:42;;;;;;;12.67;7.73;;;14.70;99.90;;;;;;4965728;28;20252;-90
2021/09/09 02:03:07;;;;;;;11.53;7.63;;;14.70;99.90;;;;;;4965529;28;20586;-88
2021/09/09 02:05:33;;;;;;;12.63;7.57;;;14.60;99.90;;;;;;4965534;28;20204;-88
2021/09/09 02:07:59;;;;;;;9.60;6.57;;;14.60;99.90;;;;;;4965972;28;20199;-88
2021/09/09 02:10:25;;;;;;;8.77;6.63;;;14.50;99.90;;;;;;4965760;28;20224;-89
2021/09/09 02:12:50;;;;;;;13.60;7.87;;;14.50;99.90;;;;;;4965930;28;20577;-88
2021/09/09 02:15:17;;;;;;;10.03;7.07;;;14.50;99.90;;;;;;4982169;28;20233;-90
2021/09/09 02:17:43;;;;;;;11.70;7.33;;;14.50;99.90;;;;;;4966729;28;23712;-88
2021/09/09 02:20:09;;;;;;;10.27;6.27;;;14.50;99.90;;;;;;4966243;28;20981;-90
2021/09/09 02:22:35;;;;;;;13.13;7.73;;;14.50;99.90;;;;;;4965113;28;20212;-89
2021/09/09 02:25:02;;;;;;;17.80;9.67;;;14.60;99.90;;;;;;4966360;28;20236;-88
2021/09/09 02:27:27;;;;;;;15.53;7.80;;;14.60;99.90;;;;;;4968593;28;20248;-88
2021/09/09 02:29:53;;;;;;;10.20;7.90;;;14.60;99.90;;;;;;4969651;28;20224;-88
2021/09/09 02:32:19;;;;;;;11.53;6.97;;;14.60;99.90;;;;;;4969573;28;21914;-87
2021/09/09 02:34:45;;;;;;;10.63;6.10;;;14.60;99.90;;;;;;4985196;28;20608;-88
2021/09/09 02:37:11;;;;;;;11.63;6.40;;;14.60;99.90;;;;;;4985031;28;20227;-88
2021/09/09 02:39:40;;;;;;;8.73;6.67;;;14.50;99.90;;;;;;4956601;28;20243;-88
2021/09/09 02:42:06;;;;;;;10.07;6.53;;;14.50;99.90;;;;;;4964656;28;20267;-87
2021/09/09 02:44:32;;;;;;;9.90;7.00;;;14.30;99.90;;;;;;4963511;28;20236;-88
2021/09/09 02:47:00;;;;;;;12.57;7.33;;;14.30;99.90;;;;;;4966092;28;20566;-87
2021/09/09 02:49:25;;;;;;;9.43;6.40;;;14.20;99.90;;;;;;4966582;28;20224;-89
2021/09/09 02:51:51;;;;;;;11.07;6.67;;;13.90;99.90;;;;;;4967716;28;20221;-89
2021/09/09 02:54:17;;;;;;;8.23;6.33;;;13.80;99.90;;;;;;4968567;28;20597;-89
2021/09/09 02:56:42;;;;;;;13.47;7.83;;;13.70;99.90;;;;;;4968096;28;21760;-90
2021/09/09 02:59:08;;;;;;;13.80;7.53;;;13.70;99.90;;;;;;4968984;28;20271;-89
2021/09/09 03:01:34;;;;;;;11.47;8.00;;;13.70;99.90;;;;;;4967760;28;20753;-87
2021/09/09 03:04:00;;;;;;;10.03;6.53;;;13.70;99.90;;;;;;4952708;28;20228;-87
2021/09/09 03:06:25;;;;;;;9.20;6.73;;;13.70;99.90;;;;;;4968037;28;20225;-88
2021/09/09 03:08:51;;;;;;;13.27;6.90;;;13.70;99.90;;;;;;4968783;28;20952;-88
2021/09/09 03:11:17;;;;;;;8.40;6.23;;;13.70;99.90;;;;;;4968352;28;20199;-87
2021/09/09 03:13:42;;;;;;;11.07;7.87;;;13.60;99.90;;;;;;4983570;28;20332;-87
2021/09/09 03:16:08;;;;;;;11.43;7.87;;;13.60;99.90;;;;;;4967840;28;20223;-87
2021/09/09 03:18:34;;;;;;;10.97;7.27;;;13.60;99.90;;;;;;4967618;28;20227;-89
2021/09/09 03:21:00;;;;;;;10.23;6.60;;;13.70;99.90;;;;;;4975823;28;20216;-89
2021/09/09 03:23:25;;;;;;;11.90;8.40;;;13.80;99.90;;;;;;4984577;28;20216;-88
2021/09/09 03:25:51;;;;;;;10.03;7.37;;;13.90;99.90;;;;;;4969153;28;20259;-89
2021/09/09 03:28:17;;;;;;;13.07;7.77;;;13.90;99.90;;;;;;4968209;28;21292;-86
2021/09/09 03:30:43;;;;;;;12.27;8.47;;;13.90;99.90;;;;;;4967966;28;20231;-88
2021/09/09 03:33:08;;;;;;;15.97;8.23;;;13.90;99.90;;;;;;4968712;28;20734;-88
2021/09/09 03:35:34;;;;;;;14.50;8.37;;;13.90;99.90;;;;;;4967371;28;21170;-87
2021/09/09 03:38:00;;;;;;;14.00;7.80;;;13.90;99.90;;;;;;4967549;28;21002;-88
2021/09/09 03:40:26;;;;;;;16.40;8.47;;;13.90;99.90;;;;;;4967594;28;20225;-88
2021/09/09 03:42:51;;;;;;;12.13;6.87;;;13.80;99.90;;;;;;4968044;28;20676;-88
2021/09/09 03:45:17;;;;;;;13.83;8.13;;;13.80;99.90;;;;;;4967757;28;20761;-87
2021/09/09 03:47:43;;;;;;;14.23;8.77;;;13.90;99.90;;;;;;4968043;28;20351;-87
2021/09/09 03:50:09;;;;;;;14.53;8.80;;;13.90;99.90;;;;;;4968364;28;20201;-86
2021/09/09 03:52:35;;;;;;;13.23;8.27;;;13.80;99.90;;;;;;4967574;28;20344;-87
2021/09/09 03:55:01;;;;;;;11.10;8.07;;;13.80;99.90;;;;;;4951888;28;20311;-89
2021/09/09 03:57:26;;;;;;;13.13;8.17;;;13.80;99.90;;;;;;4967712;28;20765;-87
2021/09/09 03:59:52;;;;;;;12.03;7.97;;;13.80;99.90;;;;;;4975762;28;20228;-87
2021/09/09 04:02:18;;;;;;;13.53;7.37;;;13.80;99.90;;;;;;4967896;28;20380;-90
2021/09/09 04:04:44;;;;;;;9.37;6.63;;;13.70;99.90;;;;;;4967424;28;20228;-89
2021/09/09 04:07:10;;;;;;;9.97;7.20;;;13.70;99.90;;;;;;4966804;28;20261;-89
2021/09/09 04:09:38;;;;;;;14.83;7.80;;;13.70;99.90;;;;;;4967118;28;20217;-88
2021/09/09 04:12:05;;;;;;;15.00;7.83;;;13.70;99.90;;;;;;4967478;28;20212;-87
2021/09/09 04:14:32;;;;;;;10.43;5.93;;;13.60;99.90;;;;;;4983053;28;20216;-87
2021/09/09 04:16:58;;;;;;;14.57;9.43;;;13.50;99.90;;;;;;4967961;28;20189;-88
2021/09/09 04:19:24;;;;;;;16.50;7.70;;;13.50;99.90;;;;;;4967558;28;20247;-88
2021/09/09 04:21:51;;;;;;;10.20;6.37;;;13.50;99.90;;;;;;4983333;28;20228;-88
2021/09/09 04:24:17;;;;;;;12.23;6.90;;;13.50;99.90;;;;;;4983565;28;20244;-89
2021/09/09 04:26:43;;;;;;;10.43;6.80;;;13.40;99.90;;;;;;4966715;28;20224;-88
2021/09/09 04:29:09;;;;;;;11.47;7.67;;;13.30;99.90;;;;;;4967664;28;20609;-86
2021/09/09 04:31:35;;;;;;;13.20;7.70;;;13.30;99.90;;;;;;4966515;28;20223;-88
2021/09/09 04:34:02;;;;;;;9.77;6.93;;;13.20;99.90;;;;;;4983185;28;20315;-87
2021/09/09 04:36:27;;;;;;;12.00;7.83;;;13.20;99.90;;;;;;4967474;28;20571;-88
2021/09/09 04:38:53;;;;;;;10.00;6.90;;;13.20;99.90;;;;;;4967083;28;20682;-87
2021/09/09 04:41:19;;;;;;;11.90;8.30;;;13.20;99.90;;;;;;4983157;28;20197;-86
2021/09/09 04:43:45;;;;;;;9.27;7.40;;;13.20;99.90;;;;;;4966941;28;20244;-88
2021/09/09 04:46:11;;;;;;;11.90;7.37;;;13.20;99.90;;;;;;4967499;28;20258;-87
2021/09/09 04:48:37;;;;;;;13.80;8.43;;;13.20;99.90;;;;;;4981847;28;20721;-86
2021/09/09 04:51:03;;;;;;;12.73;7.87;;;13.20;99.90;;;;;;4967799;28;20307;-87
2021/09/09 04:53:29;;;;;;;11.80;8.60;;;13.20;99.90;;;;;;4965805;28;20193;-87
2021/09/09 04:55:55;;;;;;;20.90;8.47;;;13.10;99.90;;;;;;4968265;28;20621;-87
2021/09/09 04:58:21;;;;;;;12.90;7.97;;;13.10;99.90;;;;;;4966481;28;20573;-89
2021/09/09 05:00:48;;;;;;;11.70;8.27;;;13.10;99.90;;;;;;4983169;28;20221;-90
2021/09/09 05:03:14;;;;;;;14.80;8.23;;;13.10;99.90;;;;;;4967800;28;20228;-88
2021/09/09 05:05:40;;;;;;;15.70;8.17;;;13.10;99.90;;;;;;4984008;28;20228;-88
2021/09/09 05:08:05;;;;;;;16.50;8.23;;;13.00;99.90;;;;;;4965625;28;20287;-86
2021/09/09 05:10:31;;;;;;;11.90;8.57;;;13.10;99.90;;;;;;4964555;28;20383;-88
2021/09/09 05:12:57;;;;;;;15.40;8.93;;;13.10;99.90;;;;;;4981022;28;20309;-89
2021/09/09 05:15:23;;;;;;;10.60;7.70;;;13.10;99.90;;;;;;4965265;28;20232;-87
2021/09/09 05:17:48;;;;;;;14.30;8.80;;;13.20;99.90;;;;;;4956919;28;20212;-87
2021/09/09 05:20:14;;;;;;;10.47;8.13;;;13.20;99.90;;;;;;4967397;28;20845;-87
2021/09/09 05:22:41;;;;;;;10.53;6.63;;;13.30;99.90;;;;;;4962671;28;20285;-89
2021/09/09 05:25:07;;;;;;;12.43;7.33;;;13.40;99.90;;;;;;4978665;28;20255;-89
2021/09/09 05:27:33;;;;;;;14.40;7.93;;;13.40;99.90;;;;;;4978637;28;20327;-93
2021/09/09 05:29:58;;;;;;;12.10;8.13;;;13.30;99.90;;;;;;4980771;28;20746;-91
2021/09/09 05:32:24;;;;;;;14.13;8.30;;;13.30;99.90;;;;;;4964354;28;20303;-91
2021/09/09 05:34:50;;;;;;;17.37;9.27;;;13.40;99.90;;;;;;4965018;28;20189;-91
2021/09/09 05:37:16;;;;;;;14.30;8.93;;;13.50;99.90;;;;;;4980714;28;21143;-93
2021/09/09 05:39:42;;;;;;;17.03;9.13;;;13.60;99.90;;;;;;4979347;28;20228;-90
2021/09/09 05:42:07;;;;;;;12.57;7.57;;;13.60;99.90;;;;;;4963535;28;20224;-91
2021/09/09 05:44:33;;;;;;;13.27;8.60;;;13.80;99.90;;;;;;4962654;28;20240;-89
2021/09/09 05:46:59;;;;;;;14.23;8.23;;;13.90;99.90;;;;;;4980791;28;20193;-91
2021/09/09 05:49:25;;;;;;;15.47;9.57;;;14.00;99.90;;;;;;4964073;28;20283;-90
2021/09/09 05:51:50;;;;;;;18.20;9.07;;;14.50;99.90;;;;;;4964547;28;20748;-91
2021/09/09 05:54:16;;;;;;;15.27;9.77;;;15.20;99.90;;;;;;4949092;28;20236;-91
2021/09/09 05:56:42;;;;;;;10.03;7.00;;;16.00;99.90;;;;;;4965893;28;20196;-91
2021/09/09 05:59:08;;;;;;;12.57;7.60;;;16.70;99.90;;;;;;4982655;28;20288;-93
2021/09/09 06:01:35;;;;;;;15.97;7.97;;;16.90;99.90;;;;;;4978832;28;20216;-91
2021/09/09 06:04:02;;;;;;;13.97;7.10;;;17.10;99.90;;;;;;4969962;28;20549;-91
2021/09/09 06:06:29;;;;;;;12.37;6.67;;;17.00;99.90;;;;;;4986576;28;20282;-90
2021/09/09 06:08:55;;;;;;;12.50;7.97;;;16.90;99.90;;;;;;4985577;28;20294;-89
2021/09/09 06:11:27;;;;;;;10.87;6.80;;;17.50;99.90;;;;;;4971574;28;20201;-93
2021/09/09 06:13:52;;;;;;;9.57;7.23;;;17.40;99.90;;;;;;4970318;28;20228;-90
2021/09/09 06:16:18;;;;;;;11.50;7.00;;;17.00;99.90;;;;;;4984081;28;20236;-92
2021/09/09 06:18:44;;;;;;;11.43;6.67;;;16.60;99.90;;;;;;4976101;28;20220;-91
2021/09/09 06:21:10;;;;;;;14.83;7.13;;;16.00;99.90;;;;;;4983085;28;20920;-88
2021/09/09 06:23:35;;;;;;;13.90;7.03;;;15.60;99.90;;;;;;4966133;28;20201;-91
2021/09/09 06:26:01;;;;;;;10.13;7.43;;;15.50;99.90;;;;;;4984682;28;20598;-93
2021/09/09 06:28:27;;;;;;;10.97;6.77;;;15.50;99.90;;;;;;4970569;28;20753;-93
2021/09/09 06:30:53;;;;;;;11.13;7.50;;;15.50;99.90;;;;;;4967832;28;20340;-90
2021/09/09 06:33:18;;;;;;;9.83;7.27;;;15.50;99.90;;;;;;4977653;28;20247;-94
2021/09/09 06:35:46;;;;;;;12.03;8.20;;;15.50;99.90;;;;;;4967801;28;20618;-93
2021/09/09 06:38:12;;;;;;;13.10;6.33;;;15.60;99.90;;;;;;4968640;28;20197;-92
2021/09/09 06:40:39;;;;;;;13.93;7.50;;;15.70;99.90;;;;;;4982298;28;20217;-94
2021/09/09 06:43:05;;;;;;;11.53;7.07;;;16.00;99.90;;;;;;4967293;28;20220;-92
2021/09/09 06:45:31;;;;;;;12.43;7.87;;;16.40;99.90;;;;;;4982232;28;20239;-92
2021/09/09 06:47:57;;;;;;;13.00;7.73;;;17.40;99.90;;;;;;4950343;28;20217;-92
2021/09/09 06:50:23;;;;;;;11.40;7.53;;;18.30;99.90;;;;;;4968013;28;20204;-92
2021/09/09 06:52:49;;;;;;;10.27;7.13;;;19.10;99.90;;;;;;4986120;28;20275;-93
2021/09/09 06:55:15;;;;;;;12.17;8.33;;;19.50;99.90;;;;;;4971806;28;20230;-87
2021/09/09 06:57:41;;;;;;;14.17;7.80;;;19.50;99.90;;;;;;4974270;28;20235;-93
2021/09/09 07:00:07;;;;;;;11.70;6.90;;;19.70;99.90;;;;;;4986989;28;20212;-92
2021/09/09 07:02:33;;;;;;;10.70;7.00;;;20.30;99.90;;;;;;4986595;28;20192;-93
2021/09/09 07:04:59;;;;;;;9.33;6.57;;;20.70;99.90;;;;;;4970861;28;20705;-92
2021/09/09 07:07:24;;;;;;;10.60;6.97;;;20.90;99.90;;;;;;4986578;28;20720;-93
2021/09/09 07:09:50;;;;;;;11.13;7.03;;;20.90;99.90;;;;;;4970578;28;20241;-92
2021/09/09 07:12:16;;;;;;;8.80;7.03;;;21.60;99.90;;;;;;4985077;28;20217;-92
2021/09/09 07:14:42;;;;;;;13.10;7.83;;;21.50;99.90;;;;;;4970359;28;20192;-93
2021/09/09 07:17:07;;;;;;;10.70;6.73;;;22.10;99.90;;;;;;4955743;28;20189;-92
2021/09/09 07:19:33;;;;;;;12.60;7.43;;;22.20;99.90;;;;;;4969564;28;20276;-90
2021/09/09 07:21:59;;;;;;;10.93;7.80;;;21.50;99.90;;;;;;4970287;28;20317;-94
2021/09/09 07:24:25;;;;;;;11.27;7.67;;;21.60;99.90;;;;;;4987916;28;20239;-94
2021/09/09 07:26:50;;;;;;;12.33;8.17;;;21.50;99.90;;;;;;4987141;28;20225;-92
2021/09/09 07:29:16;;;;;;;10.67;7.80;;;21.30;99.90;;;;;;4979188;28;20218;-90
2021/09/09 07:31:44;;;;;;;12.83;7.23;;;21.70;99.90;;;;;;4985331;28;20224;-94
2021/09/09 07:34:10;;;;;;;11.35;7.57;;;21.90;99.90;;;;;;4970375;28;20220;-90
2021/09/09 07:36:36;;;;;;;10.13;7.28;;;22.10;99.90;;;;;;4969975;28;20217;-93
2021/09/09 07:39:02;;;;;;;9.80;7.00;;;22.90;99.90;;;;;;4969652;28;20232;-91
2021/09/09 07:41:28;;;;;;;10.63;7.63;;;23.70;99.90;;;;;;4986026;28;20185;-91
2021/09/09 07:43:54;;;;;;;11.35;7.88;;;23.80;99.90;;;;;;4970916;28;20574;-91
2021/09/09 07:46:20;;;;;;;13.45;7.30;;;24.30;99.90;;;;;;4971509;28;20228;-91
2021/09/09 07:48:45;;;;;;;14.38;8.73;;;24.10;99.90;;;;;;4970473;28;20255;-92
2021/09/09 07:51:12;;;;;;;13.50;8.00;;;24.30;99.90;;;;;;4987010;28;20228;-91
2021/09/09 07:53:37;;;;;;;13.70;8.55;;;24.10;99.90;;;;;;4971682;28;20227;-92
2021/09/09 07:56:04;;;;;;;12.25;8.18;;;24.50;99.90;;;;;;4986356;28;20225;-91
2021/09/09 07:58:30;;;;;;;9.65;7.82;;;24.50;99.90;;;;;;4969562;28;20311;-90
2021/09/09 08:00:56;;;;;;;10.65;8.15;;;25.20;99.90;;;;;;4969377;28;20216;-89
2021/09/09 08:03:21;;;;;;;12.35;9.02;;;25.70;99.90;;;;;;4969302;28;20222;-91
2021/09/09 08:05:47;;;;;;;11.52;7.78;;;26.50;99.90;;;;;;4969846;28;20312;-92
2021/09/09 08:08:13;;;;;;;11.00;8.70;;;26.10;99.90;;;;;;4967616;28;20983;-93
2021/09/09 08:10:39;;;;;;;12.70;8.40;;;26.40;99.90;;;;;;4964462;28;20228;-91
2021/09/09 08:13:04;;;;;;;13.38;7.90;;;25.80;99.90;;;;;;4966105;28;20252;-91
2021/09/09 08:15:30;;;;;;;11.65;8.00;;;26.20;99.90;;;;;;4964113;28;20247;-91
2021/09/09 08:17:56;;;;;;;12.98;8.60;;;25.50;99.90;;;;;;4968249;28;20690;-90
2021/09/09 08:20:22;;;;;;;13.95;7.15;;;26.70;99.90;;;;;;4967222;28;20205;-90
2021/09/09 08:22:48;;;;;;;12.52;8.13;;;26.10;99.90;;;;;;4965223;28;20640;-91
2021/09/09 08:25:14;;;;;;;22.60;8.13;;;26.00;99.90;;;;;;4965954;28;20702;-91
2021/09/09 08:27:40;;;;;;;11.77;7.85;;;26.20;99.90;;;;;;4966118;28;20600;-92
2021/09/09 08:30:07;;;;;;;12.60;8.43;;;26.40;99.90;;;;;;4966898;28;20292;-92
2021/09/09 08:32:33;;;;;;;11.93;8.18;;;25.90;99.90;;;;;;4982839;28;20188;-91
2021/09/09 08:34:58;;;;;;;13.02;7.88;;;25.90;99.90;;;;;;4983674;28;20209;-91
2021/09/09 08:37:25;;;;;;;12.82;8.73;;;26.70;99.90;;;;;;4982453;28;20343;-91
2021/09/09 08:39:52;;;;;;;12.27;7.50;;;26.60;99.90;;;;;;4965087;28;20220;-91
2021/09/09 08:42:18;;;;;;;9.10;7.25;;;27.50;99.90;;;;;;4966888;28;20235;-91
2021/09/09 08:44:45;;;;;;;11.70;7.68;;;27.80;99.90;;;;;;4980804;28;20619;-92
2021/09/09 08:47:11;;;;;;;12.25;8.60;;;27.30;99.90;;;;;;4965844;28;20433;-91
2021/09/09 08:49:37;;;;;;;17.55;8.98;;;27.70;99.90;;;;;;4966166;28;20359;-92
2021/09/09 08:52:04;;;;;;;11.13;8.40;;;27.60;99.90;;;;;;4980485;28;20299;-90
2021/09/09 08:54:33;;;;;;;12.73;8.27;;;27.70;99.90;;;;;;4981239;28;20315;-91
2021/09/09 08:56:59;;;;;;;13.15;8.00;;;28.10;99.90;;;;;;4965437;28;20298;-91
2021/09/09 08:59:26;;;;;;;13.75;8.20;;;27.60;99.90;;;;;;4965433;28;20650;-91
2021/09/09 09:02:04;;;;;;;10.05;7.55;;;26.40;99.90;;;;;;4969431;28;20204;-90
2021/09/09 09:04:31;;;;;;;10.85;7.25;;;26.80;99.90;;;;;;4965094;28;20282;-92
2021/09/09 09:06:58;;;;;;;10.38;7.80;;;27.80;99.90;;;;;;4966872;28;20228;-93
2021/09/09 09:09:24;;;;;;;12.98;8.13;;;27.90;99.90;;;;;;4966285;28;20244;-90
2021/09/09 09:11:52;;;;;;;13.43;7.80;;;27.70;99.90;;;;;;4966393;28;20220;-91
2021/09/09 09:14:20;;;;;;;10.50;7.10;;;28.00;99.90;;;;;;4965622;28;20197;-92
2021/09/09 09:16:47;;;;;;;9.70;7.45;;;27.70;99.90;;;;;;4965925;28;20315;-88
2021/09/09 09:19:15;;;;;;;12.93;7.50;;;27.30;99.90;;;;;;4964531;28;20212;-89
2021/09/09 09:21:44;;;;;;;11.38;8.43;;;27.90;99.90;;;;;;4965830;28;20244;-93
2021/09/09 09:24:13;;;;;;;11.90;7.75;;;28.00;99.90;;;;;;4982904;28;20228;-90
2021/09/09 09:26:39;;;;;;;8.70;7.32;;;28.00;99.90;;;;;;4964616;28;20272;-92
2021/09/09 09:29:05;;;;;;;13.45;8.15;;;28.00;99.90;;;;;;4981600;28;20280;-91
2021/09/09 09:31:34;;;;;;;11.02;7.85;;;28.10;99.90;;;;;;4980500;28;20670;-92
2021/09/09 09:34:01;;;;;;;13.00;8.10;;;27.20;99.90;;;;;;4964492;28;20262;-91
2021/09/09 09:36:28;;;;;;;10.73;8.63;;;27.10;99.90;;;;;;4965579;28;20291;-92
2021/09/09 09:39:15;;;;;;;12.27;7.85;;;26.80;99.90;;;;;;4964389;28;20224;-91
2021/09/09 09:42:03;;;;;;;11.15;8.15;;;27.00;99.90;;;;;;4949189;28;20183;-91
2021/09/09 09:44:30;;;;;;;13.85;8.55;;;26.50;99.90;;;;;;4965065;28;20275;-92
2021/09/09 09:47:32;;;;;;;11.13;8.13;;;26.90;99.90;;;;;;4965977;28;20192;-92
2021/09/09 09:49:59;;;;;;;11.63;8.00;;;27.20;99.90;;;;;;4964028;28;20223;-93
2021/09/09 09:52:29;;;;;;;10.52;7.93;;;26.70;99.90;;;;;;4964974;28;20298;-88
2021/09/09 09:54:57;;;;;;;10.30;8.10;;;27.20;99.90;;;;;;4963791;28;20212;-89
2021/09/09 09:57:24;;;;;;;12.55;7.38;;;28.20;99.90;;;;;;4980685;28;20288;-92
2021/09/09 09:59:51;;;;;;;12.13;7.93;;;27.30;99.90;;;;;;4979441;28;20567;-91
2021/09/09 10:02:17;;;;;;;11.63;7.55;;;27.00;99.90;;;;;;4965376;28;20197;-91
2021/09/09 10:04:48;;;;;;;12.25;8.27;;;27.10;99.90;;;;;;4980513;28;20331;-92
2021/09/09 10:07:15;;;;;;;10.57;7.43;;;27.40;99.90;;;;;;4981238;28;20224;-91
2021/09/09 10:09:42;;;;;;;11.25;7.63;;;27.40;99.90;;;;;;4964259;28;20221;-92
2021/09/09 10:12:09;;;;;;;9.48;7.28;;;27.30;99.90;;;;;;4964634;28;20219;-90
2021/09/09 10:14:46;;;;;;;11.00;7.60;;;27.70;99.90;;;;;;4964266;28;20286;-91
2021/09/09 10:17:12;;;;;;;10.82;8.00;;;27.50;99.90;;;;;;4966219;28;20242;-91
2021/09/09 10:19:38;;;;;;;10.50;7.55;;;27.80;99.90;;;;;;4932571;28;20614;-92
2021/09/09 10:22:12;;;;;;;10.95;7.88;;;27.30;99.90;;;;;;4964358;28;20275;-90
2021/09/09 10:24:41;;;;;;;11.40;7.40;;;27.40;99.90;;;;;;4956542;28;20576;-89
2021/09/09 10:27:27;;;;;;;9.80;6.68;;;27.30;99.90;;;;;;4980651;28;20227;-90
2021/09/09 10:30:06;;;;;;;11.73;7.45;;;28.00;99.90;;;;;;4979697;28;20227;-92
2021/09/09 10:32:32;;;;;;;10.93;6.60;;;26.90;99.90;;;;;;4963369;28;20940;-92
2021/09/09 10:35:20;;;;;;;11.32;7.22;;;26.80;99.90;;;;;;4964366;28;20201;-90
2021/09/09 10:37:50;;;;;;;9.35;6.22;;;26.90;99.90;;;;;;4964019;28;20216;-89
2021/09/09 10:40:28;;;;;;;10.27;7.15;;;26.70;99.90;;;;;;4962874;28;20235;-91
2021/09/09 10:42:55;;;;;;;11.32;6.75;;;26.00;99.90;;;;;;4964043;28;20308;-89
2021/09/09 10:45:33;;;;;;;11.05;6.70;;;26.70;99.90;;;;;;4981186;28;20255;-89
2021/09/09 10:48:00;;;;;;;10.73;7.03;;;26.60;99.90;;;;;;4969077;28;20235;-92
2021/09/09 10:50:26;;;;;;;7.78;6.13;;;27.00;99.90;;;;;;4968005;28;20696;-92
2021/09/09 10:53:07;;;;;;;11.27;6.78;;;27.00;99.90;;;;;;4984722;28;20192;-92
2021/09/09 10:55:35;;;;;;;9.88;5.57;;;27.00;99.90;;;;;;4984128;28;20247;-92
2021/09/09 10:58:19;;;;;;;8.90;6.63;;;26.50;99.90;;;;;;4968457;28;20224;-92
2021/09/09 11:00:51;;;;;;;9.85;6.25;;;27.00;99.90;;;;;;4968111;28;20225;-91
2021/09/09 11:03:40;;;;;;;12.55;6.18;;;27.10;99.90;;;;;;4968495;28;20216;-95
2021/09/09 11:06:13;;;;;;;11.13;6.20;;;27.20;99.90;;;;;;4967342;28;20221;-92
2021/09/09 11:08:41;;;;;;;10.15;5.63;;;27.40;99.90;;;;;;4983921;28;21093;-90
2021/09/09 11:11:12;;;;;;;9.32;5.93;;;26.90;99.90;;;;;;4967826;28;20189;-92
2021/09/09 11:13:39;;;;;;;8.07;5.80;;;27.00;99.90;;;;;;4967456;28;20729;-93
2021/09/09 11:16:24;;;;;;;8.05;5.57;;;27.30;99.90;;;;;;4967644;28;20236;-92
2021/09/09 11:18:50;;;;;;;9.07;6.13;;;27.60;99.90;;;;;;4983133;28;20235;-92
2021/09/09 11:21:19;;;;;;;9.43;5.80;;;26.90;99.90;;;;;;4966374;28;20767;-92
2021/09/09 11:23:46;;;;;;;9.35;6.50;;;26.80;99.90;;;;;;4966381;28;20224;-92
2021/09/09 11:26:21;;;;;;;8.05;5.75;;;27.30;99.90;;;;;;4967134;28;20208;-92
2021/09/09 11:28:48;;;;;;;11.77;6.00;;;27.30;99.90;;;;;;4966992;28;20228;-93
2021/09/09 11:31:17;;;;;;;8.38;6.45;;;27.10;99.90;;;;;;4982487;28;20625;-90
2021/09/09 11:33:50;;;;;;;11.10;6.72;;;26.90;99.90;;;;;;4982190;28;20220;-92
2021/09/09 11:36:17;;;;;;;8.85;5.85;;;27.10;99.90;;;;;;4967329;28;20223;-90
2021/09/09 11:38:43;;;;;;;10.65;7.05;;;26.70;99.90;;;;;;4983246;28;20192;-92
2021/09/09 11:41:17;;;;;;;8.70;5.82;;;26.50;99.90;;;;;;4967288;28;20670;-92
2021/09/09 11:44:01;;;;;;;8.05;6.22;;;26.70;99.90;;;;;;4968168;28;20221;-93
2021/09/09 11:46:31;;;;;;;9.63;6.45;;;26.60;99.90;;;;;;4983877;28;20775;-93
2021/09/09 11:48:59;;;;;;;9.48;6.80;;;26.50;99.90;;;;;;4983074;28;20260;-93
2021/09/09 11:51:42;;;;;;;9.75;7.18;;;26.50;99.90;;;;;;4966985;28;20251;-93
2021/09/09 11:54:10;;;;;;;8.82;6.45;;;26.50;99.90;;;;;;4966330;28;20216;-93
2021/09/09 11:56:37;;;;;;;9.95;7.00;;;26.80;99.90;;;;;;4967150;28;20193;-91
2021/09/09 11:59:08;;;;;;;7.80;5.57;;;26.90;99.90;;;;;;4967438;28;20193;-91
2021/09/09 12:01:36;;;;;;;8.90;5.97;;;27.10;99.90;;;;;;4966624;28;20220;-91
2021/09/09 12:04:06;;;;;;;9.63;6.20;;;27.00;99.90;;;;;;4966641;28;20777;-93
2021/09/09 12:06:33;;;;;;;7.68;6.03;;;26.90;99.90;;;;;;4982287;28;20595;-92
2021/09/09 12:08:59;;;;;;;6.40;5.70;;;26.80;99.90;;;;;;4982722;28;20230;-93
2021/09/09 12:11:25;;;;;;;9.18;6.32;;;27.00;99.90;;;;;;4982217;28;20188;-92
2021/09/09 12:13:51;;;;;;;7.72;5.30;;;27.00;99.90;;;;;;4966188;28;20239;-92
2021/09/09 12:16:22;;;;;;;6.72;5.18;;;26.80;99.90;;;;;;4965821;28;20227;-92
2021/09/09 12:19:06;;;;;;;7.25;5.30;;;26.30;99.90;;;;;;4968540;28;20217;-92
2021/09/09 12:21:33;;;;;;;6.97;5.65;;;26.90;99.90;;;;;;4967881;28;20295;-91
2021/09/09 12:24:20;;;;;;;9.05;6.00;;;27.00;99.90;;;;;;4983251;28;20331;-93
2021/09/09 12:26:58;;;;;;;9.43;6.10;;;27.20;99.90;;;;;;4982400;28;20228;-92
2021/09/09 12:29:24;;;;;;;8.60;5.47;;;27.50;99.90;;;;;;4983216;28;20219;-93
2021/09/09 12:31:50;;;;;;;8.25;5.55;;;27.40;99.90;;;;;;4966990;28;20756;-92
2021/09/09 12:34:18;;;;;;;7.80;5.47;;;27.30;99.90;;;;;;4967022;28;20228;-93
2021/09/09 12:36:50;;;;;;;7.57;5.53;;;27.10;99.90;;;;;;4967330;28;20232;-91
2021/09/09 12:39:18;;;;;;;11.50;6.50;;;26.80;99.90;;;;;;4968286;28;20234;-92